Time;durP1;ratioP1;P1;durP2;ratioP2;P2;SDS_P1;SDS_P2;PMS_P1;PMS_P2;Temp;Humidity;BMP_temperature;BMP_pressure;BME280_temperature;BME280_humidity;BME280_pressure;Samples;Min_cycle;Max_cycle;Signal;HPM_P1;HPM_P2
2024/01/19 00:02:17;;;;;;;2.33;0.95;;;;;;;;;;5034099;28;20048;-78
2024/01/19 00:04:43;;;;;;;3.20;1.38;;;;;;;;;;5033803;28;20049;-78
2024/01/19 00:07:09;;;;;;;2.53;1.25;;;;;;;;;;5010799;28;20052;-78
2024/01/19 00:09:35;;;;;;;1.55;1.20;;;;;;;;;;5033658;28;20054;-78
2024/01/19 00:12:01;;;;;;;3.63;1.38;;;;;;;;;;5024728;28;20045;-78
2024/01/19 00:14:28;;;;;;;3.13;1.40;;;;;;;;;;5034321;28;20052;-78
2024/01/19 00:16:54;;;;;;;4.38;1.58;;;;;;;;;;5033903;28;20123;-78
2024/01/19 00:19:20;;;;;;;2.80;1.30;;;;;;;;;;5033795;28;20057;-78
2024/01/19 00:21:46;;;;;;;6.85;1.67;;;;;;;;;;5004662;28;20050;-78
2024/01/19 00:24:13;;;;;;;4.88;1.70;;;;;;;;;;5027372;28;20045;-78
2024/01/19 00:26:39;;;;;;;2.97;1.60;;;;;;;;;;5023339;28;20045;-78
2024/01/19 00:29:07;;;;;;;7.32;2.00;;;;;;;;;;5032119;28;20455;-78
2024/01/19 00:31:33;;;;;;;4.78;1.70;;;;;;;;;;5018782;28;20041;-78
2024/01/19 00:33:59;;;;;;;4.85;1.88;;;;;;;;;;5021121;28;20073;-78
2024/01/19 00:36:25;;;;;;;3.53;1.60;;;;;;;;;;5033542;28;20041;-78
2024/01/19 00:38:52;;;;;;;8.77;2.15;;;;;;;;;;5010259;28;20488;-78
2024/01/19 00:41:18;;;;;;;5.03;1.90;;;;;;;;;;5008539;28;20053;-78
2024/01/19 00:43:44;;;;;;;4.60;1.88;;;;;;;;;;5026182;28;20056;-78
2024/01/19 00:46:10;;;;;;;4.95;2.00;;;;;;;;;;5033326;28;20044;-78
2024/01/19 00:48:37;;;;;;;4.90;1.65;;;;;;;;;;5031735;28;20037;-78
2024/01/19 00:51:03;;;;;;;5.97;1.70;;;;;;;;;;5009319;28;20049;-78
2024/01/19 00:53:29;;;;;;;4.97;1.80;;;;;;;;;;5025208;28;20480;-78
2024/01/19 00:55:55;;;;;;;5.28;2.17;;;;;;;;;;5016712;28;20080;-78
2024/01/19 00:58:21;;;;;;;5.80;1.60;;;;;;;;;;5027349;28;20136;-78
2024/01/19 01:00:47;;;;;;;3.50;1.77;;;;;;;;;;5032162;28;20057;-79
2024/01/19 01:03:23;;;;;;;6.65;2.88;;;;;;;;;;5007280;28;20037;-78
2024/01/19 01:05:49;;;;;;;3.00;1.83;;;;;;;;;;5034940;28;20108;-78
2024/01/19 01:08:15;;;;;;;3.10;1.75;;;;;;;;;;5030220;28;20038;-78
2024/01/19 01:10:41;;;;;;;5.97;2.00;;;;;;;;;;5030938;28;20041;-78
2024/01/19 01:13:07;;;;;;;6.75;2.10;;;;;;;;;;5033485;28;20044;-78
2024/01/19 01:15:33;;;;;;;5.32;1.67;;;;;;;;;;5035066;28;20048;-78
2024/01/19 01:18:00;;;;;;;5.47;1.70;;;;;;;;;;5030386;28;20096;-78
2024/01/19 01:20:26;;;;;;;6.65;2.08;;;;;;;;;;5030874;28;20389;-78
2024/01/19 01:22:52;;;;;;;5.65;2.05;;;;;;;;;;5035694;28;20381;-79
2024/01/19 01:25:18;;;;;;;9.07;2.20;;;;;;;;;;5009923;28;20394;-79
2024/01/19 01:27:44;;;;;;;8.80;2.00;;;;;;;;;;5024226;28;20096;-79
2024/01/19 01:30:11;;;;;;;3.70;1.63;;;;;;;;;;5035559;28;20033;-79
2024/01/19 01:32:37;;;;;;;4.85;1.65;;;;;;;;;;5022357;28;20136;-79
2024/01/19 01:35:03;;;;;;;4.95;1.60;;;;;;;;;;5036704;28;20049;-79
2024/01/19 01:37:29;;;;;;;5.50;1.70;;;;;;;;;;5024370;28;20059;-79
2024/01/19 01:39:56;;;;;;;4.63;1.80;;;;;;;;;;5025820;28;20658;-78
2024/01/19 01:42:22;;;;;;;6.75;1.70;;;;;;;;;;5016137;28;20046;-78
2024/01/19 01:44:48;;;;;;;5.78;1.50;;;;;;;;;;5014222;28;20128;-78
2024/01/19 01:47:14;;;;;;;5.43;1.80;;;;;;;;;;5008001;28;20492;-78
2024/01/19 01:49:40;;;;;;;4.57;1.60;;;;;;;;;;5034976;28;20084;-78
2024/01/19 01:52:06;;;;;;;5.15;1.70;;;;;;;;;;5031666;28;20046;-78
2024/01/19 01:54:32;;;;;;;6.60;1.80;;;;;;;;;;5026628;28;20045;-78
2024/01/19 01:56:58;;;;;;;6.10;1.95;;;;;;;;;;5032964;28;20046;-78
2024/01/19 01:59:24;;;;;;;7.60;2.22;;;;;;;;;;5009592;28;20050;-78
2024/01/19 02:01:51;;;;;;;8.15;1.90;;;;;;;;;;5032179;28;20108;-78
2024/01/19 02:04:17;;;;;;;4.55;1.75;;;;;;;;;;5030758;28;20046;-78
2024/01/19 02:06:43;;;;;;;8.25;2.08;;;;;;;;;;4992075;28;20076;-78
2024/01/19 02:09:09;;;;;;;5.97;1.58;;;;;;;;;;5032487;28;20037;-78
2024/01/19 02:11:36;;;;;;;4.15;1.58;;;;;;;;;;5027392;28;20046;-78
2024/01/19 02:14:05;;;;;;;4.80;1.80;;;;;;;;;;5030760;28;20053;-78
2024/01/19 02:16:31;;;;;;;6.47;2.03;;;;;;;;;;5032844;28;20033;-78
2024/01/19 02:18:57;;;;;;;6.75;1.98;;;;;;;;;;5013874;28;20050;-79
2024/01/19 02:21:23;;;;;;;7.78;1.90;;;;;;;;;;5028668;28;20049;-79
2024/01/19 02:23:53;;;;;;;8.68;2.28;;;;;;;;;;5021626;28;20500;-78
2024/01/19 02:26:19;;;;;;;6.55;2.17;;;;;;;;;;5036822;28;20046;-78
2024/01/19 02:28:45;;;;;;;9.20;1.92;;;;;;;;;;5038059;28;20442;-78
2024/01/19 02:31:11;;;;;;;4.82;1.98;;;;;;;;;;5037860;28;20129;-78
2024/01/19 02:33:37;;;;;;;4.65;2.13;;;;;;;;;;5009821;28;20052;-78
2024/01/19 02:36:03;;;;;;;10.57;2.08;;;;;;;;;;5031414;28;20042;-78
2024/01/19 02:38:29;;;;;;;4.95;1.70;;;;;;;;;;5010193;28;20183;-78
2024/01/19 02:40:55;;;;;;;4.82;1.67;;;;;;;;;;5031259;28;20087;-78
2024/01/19 02:43:21;;;;;;;3.05;1.67;;;;;;;;;;5035667;28;20042;-78
2024/01/19 02:45:47;;;;;;;6.60;1.80;;;;;;;;;;5036208;28;20095;-78
2024/01/19 02:48:13;;;;;;;6.03;1.90;;;;;;;;;;5037302;28;20096;-78
2024/01/19 02:50:39;;;;;;;6.10;1.90;;;;;;;;;;5036969;28;20041;-78
2024/01/19 02:53:05;;;;;;;6.15;2.50;;;;;;;;;;5017404;28;20052;-78
2024/01/19 02:55:31;;;;;;;6.28;1.75;;;;;;;;;;5035001;28;20076;-78
2024/01/19 02:57:57;;;;;;;4.40;1.38;;;;;;;;;;5036017;28;20049;-78
2024/01/19 03:00:23;;;;;;;3.80;1.95;;;;;;;;;;5018331;28;20041;-78
2024/01/19 03:02:49;;;;;;;5.13;1.42;;;;;;;;;;5033943;28;20115;-79
2024/01/19 03:05:15;;;;;;;4.35;1.58;;;;;;;;;;5029298;28;20045;-78
2024/01/19 03:07:42;;;;;;;3.33;2.00;;;;;;;;;;5036140;28;20045;-78
2024/01/19 03:10:08;;;;;;;3.80;1.60;;;;;;;;;;5018841;28;20057;-78
2024/01/19 03:12:34;;;;;;;5.82;1.58;;;;;;;;;;5030393;28;20050;-79
2024/01/19 03:15:00;;;;;;;4.95;1.95;;;;;;;;;;5034608;28;20403;-78
2024/01/19 03:17:27;;;;;;;8.95;2.05;;;;;;;;;;5035895;28;20060;-78
2024/01/19 03:19:53;;;;;;;11.18;2.67;;;;;;;;;;5017948;28;20484;-78
2024/01/19 03:22:19;;;;;;;7.32;2.13;;;;;;;;;;5036271;28;20053;-79
2024/01/19 03:24:45;;;;;;;7.05;2.33;;;;;;;;;;5033455;28;20396;-78
2024/01/19 03:27:11;;;;;;;9.32;2.40;;;;;;;;;;5023227;28;20489;-79
2024/01/19 03:29:37;;;;;;;8.55;2.78;;;;;;;;;;5002200;28;20045;-79
2024/01/19 03:32:03;;;;;;;4.35;1.95;;;;;;;;;;5035889;28;20045;-79
2024/01/19 03:34:29;;;;;;;8.70;2.35;;;;;;;;;;5034055;28;20049;-79
2024/01/19 03:36:55;;;;;;;8.63;2.10;;;;;;;;;;5034718;28;20044;-79
2024/01/19 03:39:23;;;;;;;9.60;2.65;;;;;;;;;;5035526;28;20049;-79
2024/01/19 03:41:49;;;;;;;5.35;2.25;;;;;;;;;;5035527;28;20049;-79
2024/01/19 03:44:15;;;;;;;10.60;2.03;;;;;;;;;;5035566;28;20483;-78
2024/01/19 03:46:41;;;;;;;8.35;2.50;;;;;;;;;;5035195;28;20499;-78
2024/01/19 03:49:07;;;;;;;9.00;2.28;;;;;;;;;;5035074;28;20491;-78
2024/01/19 03:51:33;;;;;;;7.35;2.50;;;;;;;;;;5024985;28;20045;-79
2024/01/19 03:53:59;;;;;;;7.00;2.47;;;;;;;;;;5025819;28;20140;-79
2024/01/19 03:56:25;;;;;;;6.38;1.95;;;;;;;;;;5034120;28;20045;-79
2024/01/19 03:58:51;;;;;;;5.45;1.90;;;;;;;;;;5024240;28;20041;-78
2024/01/19 04:01:17;;;;;;;4.55;1.77;;;;;;;;;;5033842;28;20395;-78
2024/01/19 04:03:44;;;;;;;9.07;2.65;;;;;;;;;;5021380;28;20042;-79
2024/01/19 04:06:10;;;;;;;7.63;1.90;;;;;;;;;;5022142;28;20058;-79
2024/01/19 04:08:37;;;;;;;8.60;1.90;;;;;;;;;;5019525;28;20136;-79
2024/01/19 04:11:03;;;;;;;2.33;1.90;;;;;;;;;;5034144;28;20165;-79
2024/01/19 04:13:29;;;;;;;3.83;1.75;;;;;;;;;;5033681;28;20058;-78
2024/01/19 04:15:55;;;;;;;10.07;2.25;;;;;;;;;;5032918;28;20064;-78
2024/01/19 04:18:21;;;;;;;5.28;2.00;;;;;;;;;;5029015;28;20053;-78
2024/01/19 04:20:47;;;;;;;11.68;2.15;;;;;;;;;;5030692;28;20052;-79
2024/01/19 04:23:16;;;;;;;5.90;1.60;;;;;;;;;;5026828;28;20381;-79
2024/01/19 04:25:42;;;;;;;5.95;1.80;;;;;;;;;;5022092;28;20152;-79
2024/01/19 04:28:08;;;;;;;10.63;2.00;;;;;;;;;;5012457;28;20045;-80
2024/01/19 04:30:34;;;;;;;5.57;2.42;;;;;;;;;;5022735;28;20042;-79
2024/01/19 04:33:00;;;;;;;7.93;2.28;;;;;;;;;;5020838;28;20037;-79
2024/01/19 04:35:26;;;;;;;5.63;1.92;;;;;;;;;;5016571;28;20087;-80
2024/01/19 04:37:52;;;;;;;10.80;2.30;;;;;;;;;;5032445;28;20038;-79
2024/01/19 04:40:18;;;;;;;8.52;2.10;;;;;;;;;;5015592;28;20065;-79
2024/01/19 04:42:44;;;;;;;7.65;2.00;;;;;;;;;;5018734;28;20052;-79
2024/01/19 04:45:10;;;;;;;8.27;1.80;;;;;;;;;;5019508;28;20048;-79
2024/01/19 04:47:36;;;;;;;8.73;2.80;;;;;;;;;;5011702;28;20058;-80
2024/01/19 04:50:02;;;;;;;3.45;1.98;;;;;;;;;;5032928;28;20049;-79
2024/01/19 04:52:28;;;;;;;8.80;2.00;;;;;;;;;;5031807;28;20069;-78
2024/01/19 04:54:54;;;;;;;6.68;2.35;;;;;;;;;;5029052;28;20123;-79
2024/01/19 04:57:20;;;;;;;8.00;2.65;;;;;;;;;;5013893;28;20065;-79
2024/01/19 04:59:46;;;;;;;5.97;2.10;;;;;;;;;;5011526;28;20393;-78
2024/01/19 05:02:13;;;;;;;8.50;3.45;;;;;;;;;;5036503;28;20076;-78
2024/01/19 05:04:41;;;;;;;9.68;4.13;;;;;;;;;;5035897;28;20059;-78
2024/01/19 05:07:07;;;;;;;19.25;6.88;;;;;;;;;;5036546;28;20099;-78
2024/01/19 05:09:33;;;;;;;21.08;7.50;;;;;;;;;;5032064;28;20501;-79
2024/01/19 05:11:59;;;;;;;16.48;7.80;;;;;;;;;;5036339;28;20049;-78
2024/01/19 05:14:25;;;;;;;10.48;5.22;;;;;;;;;;5029930;28;20041;-78
2024/01/19 05:16:51;;;;;;;9.57;4.00;;;;;;;;;;5035193;28;20049;-78
2024/01/19 05:19:17;;;;;;;11.68;3.72;;;;;;;;;;5012299;28;20045;-78
2024/01/19 05:21:43;;;;;;;10.35;4.05;;;;;;;;;;5034007;28;20056;-78
2024/01/19 05:24:09;;;;;;;9.85;3.50;;;;;;;;;;5036180;28;20418;-78
2024/01/19 05:26:35;;;;;;;10.40;2.92;;;;;;;;;;5029841;28;20110;-78
2024/01/19 05:29:02;;;;;;;4.60;2.33;;;;;;;;;;5024477;28;20130;-78
2024/01/19 05:31:28;;;;;;;7.85;2.10;;;;;;;;;;5029470;28;20052;-78
2024/01/19 05:33:54;;;;;;;7.55;2.38;;;;;;;;;;5034209;28;20120;-78
2024/01/19 05:36:20;;;;;;;7.68;2.22;;;;;;;;;;5035743;28;20092;-78
2024/01/19 05:38:46;;;;;;;8.75;2.80;;;;;;;;;;5029554;28;20038;-78
2024/01/19 05:41:18;;;;;;;8.18;2.08;;;;;;;;;;5031631;28;20117;-78
2024/01/19 05:43:44;;;;;;;12.82;2.22;;;;;;;;;;5032978;28;20507;-78
2024/01/19 05:46:12;;;;;;;7.15;2.28;;;;;;;;;;5026375;28;20084;-79
2024/01/19 05:48:38;;;;;;;7.18;1.90;;;;;;;;;;5020316;28;20042;-79
2024/01/19 05:51:04;;;;;;;4.45;1.70;;;;;;;;;;5032999;28;20176;-79
2024/01/19 05:53:30;;;;;;;7.95;3.55;;;;;;;;;;5027171;28;20091;-78
2024/01/19 05:55:56;;;;;;;6.00;2.38;;;;;;;;;;5026119;28;20080;-78
2024/01/19 05:58:22;;;;;;;8.40;2.05;;;;;;;;;;5029882;28;20046;-78
2024/01/19 06:00:49;;;;;;;8.32;1.80;;;;;;;;;;5033887;28;20063;-78
2024/01/19 06:03:15;;;;;;;7.65;2.00;;;;;;;;;;5038163;28;20045;-78
2024/01/19 06:05:41;;;;;;;11.05;2.90;;;;;;;;;;5039141;28;20041;-78
2024/01/19 06:08:07;;;;;;;6.25;2.10;;;;;;;;;;5030374;28;20042;-78
2024/01/19 06:10:33;;;;;;;8.18;2.42;;;;;;;;;;5022195;28;20128;-78
2024/01/19 06:13:00;;;;;;;5.85;2.40;;;;;;;;;;5022368;28;20049;-78
2024/01/19 06:15:26;;;;;;;12.80;3.50;;;;;;;;;;5032879;28;20056;-79
2024/01/19 06:17:52;;;;;;;9.40;2.88;;;;;;;;;;5024213;28;20523;-79
2024/01/19 06:20:18;;;;;;;9.70;2.92;;;;;;;;;;5037380;28;20042;-79
2024/01/19 06:22:44;;;;;;;6.78;2.45;;;;;;;;;;5029023;28;20451;-79
2024/01/19 06:25:10;;;;;;;7.88;2.40;;;;;;;;;;5005848;28;20053;-78
2024/01/19 06:27:36;;;;;;;8.23;2.88;;;;;;;;;;5030085;28;20049;-78
2024/01/19 06:30:03;;;;;;;9.68;3.42;;;;;;;;;;5024872;28;20377;-78
2024/01/19 06:32:30;;;;;;;12.85;2.53;;;;;;;;;;5037779;28;20052;-78
2024/01/19 06:34:56;;;;;;;9.88;2.80;;;;;;;;;;5033254;28;20049;-78
2024/01/19 06:37:22;;;;;;;16.30;3.90;;;;;;;;;;5035461;28;20042;-78
2024/01/19 06:39:48;;;;;;;12.00;3.55;;;;;;;;;;5017676;28;20128;-78
2024/01/19 06:42:14;;;;;;;7.40;2.47;;;;;;;;;;5035483;28;20519;-78
2024/01/19 06:44:43;;;;;;;11.45;2.92;;;;;;;;;;5013456;28;20049;-79
2024/01/19 06:47:10;;;;;;;9.50;2.40;;;;;;;;;;5024897;28;20050;-77
2024/01/19 06:49:36;;;;;;;8.02;2.33;;;;;;;;;;5030242;28;20042;-79
2024/01/19 06:52:04;;;;;;;10.13;2.75;;;;;;;;;;5028279;28;20045;-78
2024/01/19 06:54:31;;;;;;;9.68;2.80;;;;;;;;;;5024868;28;20080;-79
2024/01/19 06:56:57;;;;;;;8.57;3.03;;;;;;;;;;5030650;28;20041;-78
2024/01/19 06:59:25;;;;;;;9.25;2.53;;;;;;;;;;5021849;28;20057;-78
2024/01/19 07:01:51;;;;;;;9.98;2.78;;;;;;;;;;5032599;28;20037;-78
2024/01/19 07:04:17;;;;;;;9.65;3.00;;;;;;;;;;5003218;28;20050;-78
2024/01/19 07:06:43;;;;;;;6.88;2.58;;;;;;;;;;5022934;28;20453;-78
2024/01/19 07:09:09;;;;;;;8.77;2.63;;;;;;;;;;5034487;28;20037;-78
2024/01/19 07:11:35;;;;;;;5.75;2.08;;;;;;;;;;5033965;28;20095;-79
2024/01/19 07:14:01;;;;;;;8.65;2.33;;;;;;;;;;5018170;28;20101;-78
2024/01/19 07:16:28;;;;;;;8.57;2.63;;;;;;;;;;5029820;28;20053;-79
2024/01/19 07:18:54;;;;;;;8.98;2.97;;;;;;;;;;5027012;28;20095;-79
2024/01/19 07:21:20;;;;;;;12.40;2.60;;;;;;;;;;5027334;28;20103;-79
2024/01/19 07:23:46;;;;;;;15.88;3.22;;;;;;;;;;5026167;28;20041;-79
2024/01/19 07:26:12;;;;;;;8.95;2.42;;;;;;;;;;5029299;28;20044;-79
2024/01/19 07:28:39;;;;;;;7.97;2.95;;;;;;;;;;5032398;28;20046;-79
2024/01/19 07:31:05;;;;;;;9.77;2.80;;;;;;;;;;5028732;28;20082;-79
2024/01/19 07:33:31;;;;;;;9.43;2.70;;;;;;;;;;5026271;28;20049;-79
2024/01/19 07:35:57;;;;;;;8.20;2.70;;;;;;;;;;5032401;28;20512;-79
2024/01/19 07:38:23;;;;;;;11.57;3.05;;;;;;;;;;5024354;28;20049;-79
2024/01/19 07:40:49;;;;;;;13.15;2.95;;;;;;;;;;5017224;28;20616;-79
2024/01/19 07:43:15;;;;;;;10.52;2.97;;;;;;;;;;5029838;28;20456;-79
2024/01/19 07:45:41;;;;;;;11.75;3.28;;;;;;;;;;5031124;28;20041;-79
2024/01/19 07:48:07;;;;;;;10.82;3.13;;;;;;;;;;5035667;28;20114;-79
2024/01/19 07:50:33;;;;;;;4.97;2.33;;;;;;;;;;5017036;28;20041;-78
2024/01/19 07:52:59;;;;;;;13.57;2.97;;;;;;;;;;5032476;28;20045;-78
2024/01/19 07:55:25;;;;;;;15.85;3.20;;;;;;;;;;5029414;28;20048;-79
2024/01/19 07:57:51;;;;;;;10.85;3.17;;;;;;;;;;5034960;28;20498;-79
2024/01/19 08:00:18;;;;;;;8.82;2.60;;;;;;;;;;5025337;28;20087;-79
2024/01/19 08:02:45;;;;;;;15.40;3.60;;;;;;;;;;5007220;28;20045;-78
2024/01/19 08:05:11;;;;;;;13.50;3.83;;;;;;;;;;5028581;28;20054;-79
2024/01/19 08:07:37;;;;;;;9.50;2.97;;;;;;;;;;5031671;28;20045;-80
2024/01/19 08:10:03;;;;;;;11.43;2.90;;;;;;;;;;5021194;28;20040;-79
2024/01/19 08:12:29;;;;;;;11.15;3.40;;;;;;;;;;5011002;28;20054;-79
2024/01/19 08:14:57;;;;;;;12.98;3.63;;;;;;;;;;5012202;28;20050;-79
2024/01/19 08:17:23;;;;;;;15.73;3.00;;;;;;;;;;5028084;28;20041;-79
2024/01/19 08:19:49;;;;;;;9.77;2.70;;;;;;;;;;5028716;28;20042;-78
2024/01/19 08:22:15;;;;;;;8.85;2.97;;;;;;;;;;5015439;28;20038;-78
2024/01/19 08:24:42;;;;;;;12.00;2.70;;;;;;;;;;5033681;28;20405;-79
2024/01/19 08:27:08;;;;;;;10.93;2.63;;;;;;;;;;5035612;28;20049;-79
2024/01/19 08:29:34;;;;;;;13.35;3.88;;;;;;;;;;5025453;28;20060;-81
2024/01/19 08:32:00;;;;;;;11.55;2.83;;;;;;;;;;5008625;28;20097;-79
2024/01/19 08:34:27;;;;;;;8.27;2.72;;;;;;;;;;5007593;28;20496;-80
2024/01/19 08:36:53;;;;;;;9.88;3.25;;;;;;;;;;5035924;28;20046;-79
2024/01/19 08:39:19;;;;;;;7.97;2.50;;;;;;;;;;5035465;28;20547;-79
2024/01/19 08:41:47;;;;;;;11.48;4.07;;;;;;;;;;5008750;28;20050;-79
2024/01/19 08:44:13;;;;;;;10.32;3.13;;;;;;;;;;5024179;28;20065;-79
2024/01/19 08:46:43;;;;;;;11.00;3.10;;;;;;;;;;5006635;28;20279;-78
2024/01/19 08:49:10;;;;;;;9.43;2.50;;;;;;;;;;5027651;28;21521;-78
2024/01/19 08:51:36;;;;;;;14.38;2.65;;;;;;;;;;5027788;28;20408;-76
2024/01/19 08:54:03;;;;;;;12.45;3.72;;;;;;;;;;5022570;28;20041;-77
2024/01/19 08:56:30;;;;;;;11.65;2.95;;;;;;;;;;5021589;28;20057;-77
2024/01/19 08:58:57;;;;;;;9.65;2.90;;;;;;;;;;5023216;28;20128;-77
2024/01/19 09:01:23;;;;;;;11.02;3.20;;;;;;;;;;5021218;28;20045;-77
2024/01/19 09:03:49;;;;;;;10.43;2.95;;;;;;;;;;5021115;28;20056;-77
2024/01/19 09:06:16;;;;;;;8.10;3.17;;;;;;;;;;5030555;28;20045;-77
2024/01/19 09:08:43;;;;;;;7.45;2.80;;;;;;;;;;5024013;28;20046;-77
2024/01/19 09:11:09;;;;;;;9.40;2.80;;;;;;;;;;5031897;28;20045;-77
2024/01/19 09:13:37;;;;;;;10.38;2.97;;;;;;;;;;5026565;28;20057;-77
2024/01/19 09:16:06;;;;;;;12.93;3.40;;;;;;;;;;4999005;28;20057;-77
2024/01/19 09:18:32;;;;;;;12.93;3.95;;;;;;;;;;5026131;28;20054;-77
2024/01/19 09:20:58;;;;;;;8.70;3.03;;;;;;;;;;5019391;28;20485;-77
2024/01/19 09:23:24;;;;;;;10.20;3.72;;;;;;;;;;5019155;28;20077;-77
2024/01/19 09:25:50;;;;;;;11.25;3.47;;;;;;;;;;5031019;28;20060;-77
2024/01/19 09:28:17;;;;;;;10.40;2.35;;;;;;;;;;5030707;28;20439;-77
2024/01/19 09:30:43;;;;;;;7.57;2.58;;;;;;;;;;5032255;28;20050;-77
2024/01/19 09:33:09;;;;;;;9.95;2.60;;;;;;;;;;5021310;28;20071;-76
2024/01/19 09:35:35;;;;;;;14.00;2.63;;;;;;;;;;5023238;28;20203;-76
2024/01/19 09:38:01;;;;;;;9.15;2.53;;;;;;;;;;5029909;28;20045;-76
2024/01/19 09:40:27;;;;;;;11.77;2.92;;;;;;;;;;5012316;28;20042;-76
2024/01/19 09:42:54;;;;;;;7.97;2.53;;;;;;;;;;5023380;28;20044;-76
2024/01/19 09:45:21;;;;;;;9.05;2.75;;;;;;;;;;5030857;28;20065;-76
2024/01/19 09:47:47;;;;;;;12.20;2.90;;;;;;;;;;5022755;28;20050;-76
2024/01/19 09:50:17;;;;;;;10.73;2.70;;;;;;;;;;5034018;28;20121;-76
2024/01/19 09:52:52;;;;;;;9.45;2.80;;;;;;;;;;5032008;28;20500;-76
2024/01/19 09:55:20;;;;;;;6.78;2.80;;;;;;;;;;5033146;28;20412;-76
2024/01/19 09:57:47;;;;;;;13.45;3.65;;;;;;;;;;5020046;28;20045;-77
2024/01/19 10:00:17;;;;;;;4.35;2.05;;;;;;;;;;5023888;28;20041;-75
2024/01/19 10:02:47;;;;;;;10.73;3.13;;;;;;;;;;5031092;28;20050;-76
2024/01/19 10:05:14;;;;;;;9.52;2.70;;;;;;;;;;5020161;28;20034;-76
2024/01/19 10:07:53;;;;;;;6.57;2.20;;;;;;;;;;5020578;28;20050;-80
2024/01/19 10:10:19;;;;;;;10.95;2.92;;;;;;;;;;5032034;28;20049;-76
2024/01/19 10:12:45;;;;;;;10.05;2.55;;;;;;;;;;5023980;28;20437;-76
2024/01/19 10:15:12;;;;;;;8.02;2.30;;;;;;;;;;5020595;28;20564;-76
2024/01/19 10:17:39;;;;;;;6.60;2.17;;;;;;;;;;5035488;28;20095;-76
2024/01/19 10:20:06;;;;;;;12.13;2.47;;;;;;;;;;5011266;28;20092;-76
2024/01/19 10:22:32;;;;;;;8.55;2.63;;;;;;;;;;5028339;28;20125;-76
2024/01/19 10:25:05;;;;;;;10.98;2.38;;;;;;;;;;5034699;28;20061;-76
2024/01/19 10:27:44;;;;;;;10.90;2.20;;;;;;;;;;5034741;28;20057;-76
2024/01/19 10:30:11;;;;;;;7.63;2.25;;;;;;;;;;5008163;28;20056;-76
2024/01/19 10:32:39;;;;;;;9.73;2.45;;;;;;;;;;5027068;28;20041;-77
2024/01/19 10:35:14;;;;;;;9.05;2.92;;;;;;;;;;5033078;28;20045;-79
2024/01/19 10:37:40;;;;;;;9.77;2.78;;;;;;;;;;5022183;28;20042;-76
2024/01/19 10:40:21;;;;;;;6.65;2.40;;;;;;;;;;5024986;28;20077;-76
2024/01/19 10:42:49;;;;;;;10.52;2.40;;;;;;;;;;5016246;28;20129;-77
2024/01/19 10:45:16;;;;;;;8.25;2.50;;;;;;;;;;5016206;28;20145;-76
2024/01/19 10:47:43;;;;;;;6.18;2.25;;;;;;;;;;5028893;28;20175;-76
2024/01/19 10:50:11;;;;;;;8.75;2.00;;;;;;;;;;5011324;28;20386;-76
2024/01/19 10:52:39;;;;;;;8.18;2.80;;;;;;;;;;5021521;28;20053;-77
2024/01/19 10:55:06;;;;;;;8.32;2.08;;;;;;;;;;5035224;28;20052;-77
2024/01/19 10:57:32;;;;;;;11.93;2.10;;;;;;;;;;5034376;28;20052;-76
2024/01/19 10:59:58;;;;;;;6.22;2.53;;;;;;;;;;5034331;28;20091;-76
2024/01/19 11:02:24;;;;;;;5.60;2.10;;;;;;;;;;5021597;28;20050;-76
2024/01/19 11:04:52;;;;;;;6.80;2.33;;;;;;;;;;5021813;28;20076;-76
2024/01/19 11:07:18;;;;;;;5.78;2.10;;;;;;;;;;5034777;28;20037;-76
2024/01/19 11:09:44;;;;;;;5.82;2.03;;;;;;;;;;5034683;28;20041;-76
2024/01/19 11:12:11;;;;;;;7.78;2.65;;;;;;;;;;5033233;28;20095;-80
2024/01/19 11:14:38;;;;;;;6.78;2.33;;;;;;;;;;5018256;28;20042;-79
2024/01/19 11:17:04;;;;;;;6.45;2.00;;;;;;;;;;5015234;28;20599;-80
2024/01/19 11:19:31;;;;;;;5.50;2.15;;;;;;;;;;5019712;28;20049;-79
2024/01/19 11:21:57;;;;;;;6.63;2.38;;;;;;;;;;5037325;28;20058;-79
2024/01/19 11:24:26;;;;;;;9.88;2.72;;;;;;;;;;5003547;28;20080;-79
2024/01/19 11:27:02;;;;;;;9.93;3.45;;;;;;;;;;5019555;28;20041;-79
2024/01/19 11:29:44;;;;;;;8.15;2.15;;;;;;;;;;5024873;28;20052;-79
2024/01/19 11:32:11;;;;;;;9.68;2.40;;;;;;;;;;5011250;28;20042;-80
2024/01/19 11:34:49;;;;;;;6.05;2.03;;;;;;;;;;5021122;28;20129;-81
2024/01/19 11:37:39;;;;;;;8.80;2.45;;;;;;;;;;5010246;28;20121;-78
2024/01/19 11:40:05;;;;;;;9.02;2.78;;;;;;;;;;5019519;28;20049;-77
2024/01/19 11:42:34;;;;;;;11.57;2.72;;;;;;;;;;5027926;28;20042;-77
2024/01/19 11:45:00;;;;;;;10.27;2.47;;;;;;;;;;5031169;28;20064;-77
2024/01/19 11:47:36;;;;;;;7.60;2.20;;;;;;;;;;5025439;28;20117;-76
2024/01/19 11:50:03;;;;;;;10.13;2.70;;;;;;;;;;5023340;28;20042;-80
2024/01/19 11:52:35;;;;;;;8.07;2.03;;;;;;;;;;5017223;28;20405;-78
2024/01/19 11:55:20;;;;;;;9.63;2.08;;;;;;;;;;5019229;28;20042;-77
2024/01/19 11:57:46;;;;;;;6.72;2.15;;;;;;;;;;5023970;28;20046;-77
2024/01/19 12:00:13;;;;;;;8.80;2.33;;;;;;;;;;5016894;28;20560;-77
2024/01/19 12:02:39;;;;;;;7.90;3.10;;;;;;;;;;5031473;28;20500;-77
2024/01/19 12:05:09;;;;;;;10.02;2.53;;;;;;;;;;5027280;28;20120;-78
2024/01/19 12:07:35;;;;;;;8.63;2.50;;;;;;;;;;5014215;28;20124;-78
2024/01/19 12:10:07;;;;;;;12.02;2.67;;;;;;;;;;5026855;28;20080;-78
2024/01/19 12:12:34;;;;;;;9.35;2.25;;;;;;;;;;5025184;28;20397;-78
2024/01/19 12:15:04;;;;;;;6.57;2.15;;;;;;;;;;5030531;28;20087;-77
2024/01/19 12:17:30;;;;;;;11.05;2.55;;;;;;;;;;5032780;28;20049;-77
2024/01/19 12:19:56;;;;;;;10.32;2.70;;;;;;;;;;5032981;28;20044;-77
2024/01/19 12:22:23;;;;;;;6.50;2.35;;;;;;;;;;5028844;28;20041;-77
2024/01/19 12:24:49;;;;;;;7.22;2.40;;;;;;;;;;5027703;28;20628;-77
2024/01/19 12:27:18;;;;;;;9.50;3.03;;;;;;;;;;5024510;28;20053;-77
2024/01/19 12:29:44;;;;;;;6.65;2.03;;;;;;;;;;5029781;28;20037;-77
2024/01/19 12:32:12;;;;;;;7.03;2.10;;;;;;;;;;5033155;28;20057;-77
2024/01/19 12:34:38;;;;;;;4.53;2.00;;;;;;;;;;5028420;28;20044;-77
2024/01/19 12:37:04;;;;;;;4.13;1.95;;;;;;;;;;5025109;28;20069;-77
2024/01/19 12:39:30;;;;;;;3.25;1.58;;;;;;;;;;5020927;28;20562;-77
2024/01/19 12:42:05;;;;;;;7.57;2.15;;;;;;;;;;5022147;28;20539;-77
2024/01/19 12:44:34;;;;;;;4.93;2.50;;;;;;;;;;5019497;28;20135;-77
2024/01/19 12:47:01;;;;;;;8.70;2.40;;;;;;;;;;5032801;28;20056;-77
2024/01/19 12:49:27;;;;;;;10.93;2.75;;;;;;;;;;5014469;28;20401;-77
2024/01/19 12:51:53;;;;;;;5.45;2.53;;;;;;;;;;5026428;28;20041;-77
2024/01/19 12:54:20;;;;;;;6.35;2.30;;;;;;;;;;5032881;28;20124;-77
2024/01/19 12:56:49;;;;;;;6.88;2.25;;;;;;;;;;5030247;28;20554;-77
2024/01/19 12:59:19;;;;;;;6.07;2.05;;;;;;;;;;5022769;28;20038;-77
2024/01/19 13:01:45;;;;;;;7.18;2.88;;;;;;;;;;5026630;28;20389;-77
2024/01/19 13:04:12;;;;;;;8.85;2.10;;;;;;;;;;5032352;28;20049;-77
2024/01/19 13:06:44;;;;;;;4.95;2.10;;;;;;;;;;5017399;28;20353;-77
2024/01/19 13:09:11;;;;;;;7.15;2.15;;;;;;;;;;5023807;28;20041;-77
2024/01/19 13:11:38;;;;;;;8.25;1.98;;;;;;;;;;5032612;28;20115;-77
2024/01/19 13:14:04;;;;;;;7.35;2.03;;;;;;;;;;5021506;28;20390;-77
2024/01/19 13:16:31;;;;;;;5.50;2.15;;;;;;;;;;5025177;28;20049;-77
2024/01/19 13:19:01;;;;;;;9.10;2.35;;;;;;;;;;5022825;28;20057;-77
2024/01/19 13:21:27;;;;;;;7.18;2.28;;;;;;;;;;5032363;28;20048;-77
2024/01/19 13:23:53;;;;;;;8.35;2.70;;;;;;;;;;5032074;28;20042;-77
2024/01/19 13:26:19;;;;;;;9.63;2.60;;;;;;;;;;5032158;28;20049;-77
2024/01/19 13:28:47;;;;;;;6.18;2.25;;;;;;;;;;5022600;28;20074;-77
2024/01/19 13:31:14;;;;;;;9.55;2.50;;;;;;;;;;5016804;28;20080;-77
2024/01/19 13:33:42;;;;;;;10.45;3.72;;;;;;;;;;5025214;28;20484;-77
2024/01/19 13:36:09;;;;;;;7.50;2.50;;;;;;;;;;5020201;28;20042;-78
2024/01/19 13:38:35;;;;;;;6.47;2.78;;;;;;;;;;5030814;28;20053;-78
2024/01/19 13:41:01;;;;;;;12.07;4.15;;;;;;;;;;5031179;28;20037;-78
2024/01/19 13:43:27;;;;;;;6.22;2.80;;;;;;;;;;5023145;28;20041;-78
2024/01/19 13:45:53;;;;;;;6.90;2.90;;;;;;;;;;5027736;28;20046;-78
2024/01/19 13:48:21;;;;;;;7.15;2.58;;;;;;;;;;5023116;28;20049;-78
2024/01/19 13:50:47;;;;;;;8.23;2.75;;;;;;;;;;5029833;28;20049;-78
2024/01/19 13:53:15;;;;;;;8.80;2.85;;;;;;;;;;5014710;28;20111;-77
2024/01/19 13:55:41;;;;;;;8.77;2.75;;;;;;;;;;5029879;28;20053;-77
2024/01/19 13:58:07;;;;;;;8.27;3.05;;;;;;;;;;5023238;28;20442;-77
2024/01/19 14:00:33;;;;;;;8.15;3.17;;;;;;;;;;5027506;28;20496;-77
2024/01/19 14:02:59;;;;;;;7.18;2.97;;;;;;;;;;5031606;28;20042;-77
2024/01/19 14:05:25;;;;;;;7.28;3.47;;;;;;;;;;5026562;28;20080;-77
2024/01/19 14:07:52;;;;;;;8.98;2.80;;;;;;;;;;5029827;28;20049;-77
2024/01/19 14:10:18;;;;;;;6.60;3.10;;;;;;;;;;5031827;28;20064;-77
2024/01/19 14:12:45;;;;;;;8.88;3.00;;;;;;;;;;5031692;28;20140;-77
2024/01/19 14:15:11;;;;;;;6.35;2.60;;;;;;;;;;5027674;28;20065;-77
2024/01/19 14:17:37;;;;;;;8.05;3.30;;;;;;;;;;5023279;28;20049;-77
2024/01/19 14:20:05;;;;;;;6.25;2.70;;;;;;;;;;5028215;28;20045;-77
2024/01/19 14:22:31;;;;;;;7.53;3.13;;;;;;;;;;5024770;28;20500;-77
2024/01/19 14:24:57;;;;;;;7.55;3.35;;;;;;;;;;5030979;28;20044;-77
2024/01/19 14:27:28;;;;;;;6.85;2.80;;;;;;;;;;5018094;28;20089;-81
2024/01/19 14:29:56;;;;;;;8.05;3.22;;;;;;;;;;5028433;28;20135;-77
2024/01/19 14:32:22;;;;;;;7.22;2.50;;;;;;;;;;5011545;28;20088;-77
2024/01/19 14:34:48;;;;;;;5.45;2.63;;;;;;;;;;5023584;28;20346;-77
2024/01/19 14:37:14;;;;;;;8.95;3.28;;;;;;;;;;5034511;28;20408;-77
2024/01/19 14:39:40;;;;;;;11.38;2.88;;;;;;;;;;5035320;28;20041;-77